Capitol Logistics 3275


MYNN
Lynden Pindling International Airport
Nassau, BS
MBPV
Providenciales International Airport
Providenciales, TC

Activity Log

Date Flight Route Aircraft Duration
04/12/2020 CPX3275 ZQA A555 MICAS G648 PVN SF34 1h 50m
10/12/2019 CPX675 ZQA A555 MICAS G648 PVN SF34 2h 27m
09/04/2019 CPX675 CUDLI HIDGY DUNNO ACMEE WRECK SOLEI TROTR BENOS EMUSO SF34 1h 54m
08/21/2019 CPX675 ZQA A555 MICAS G648 PVN SF34 1h 35m

Route Details

Aircraft Information
Primary: Saab 340AF
Backup: Not Available
Route Data
Distance: 347nm
Sched. Duration: 2h 10m
Avg. Duration: 1h 66m (-44m)
Times Flown: 4
Recm'd Route: ZQA A555 MICAS G648 PVN
Planned Altitude: 16,000ft
Origin Wx: MYNN 080600Z 08003KT 050V110 9999 FEW025 SCT200 28/25 A3012
Dest. Wx: MBPV 072300Z 11005KT 9999 SCT014 29/23 Q1016
Notes:

Financial History
Total Freight: 25,755lbs
Average Load: 6,439lbs/flt
Fuel Used: 6,288lbs
Avg. Fuel Used: 1,572lbs/flt
Fuel Expense: $6,099
Avg. Fuel Expense: $1,525
Avg. Fuel Cost: $0.97/lbs
Total Gross Income: $29,640
Pilot Pay: $916
Total Expenses: $3,409
Total Revenue: $18,321
Average Revenue: $7,410.09